createdAt,value
2019-03-04T00:00:23.332Z,995.49
2019-03-04T00:01:23.330Z,995.42
2019-03-04T00:02:26.678Z,995.42
2019-03-04T00:03:23.328Z,995.42
2019-03-04T00:04:23.303Z,995.43
2019-03-04T00:05:23.295Z,995.39
2019-03-04T00:06:23.276Z,995.47
2019-03-04T00:07:23.283Z,995.39
2019-03-04T00:08:23.269Z,995.42
2019-03-04T00:09:23.265Z,995.35
2019-03-04T00:10:23.225Z,995.33
2019-03-04T00:11:23.261Z,995.28
2019-03-04T00:12:23.207Z,995.33
2019-03-04T00:13:23.190Z,995.32
2019-03-04T00:14:23.201Z,995.29
2019-03-04T00:15:23.171Z,995.37
2019-03-04T00:16:23.169Z,995.35
2019-03-04T00:17:23.149Z,995.36
2019-03-04T00:18:23.190Z,995.31
2019-03-04T00:19:23.127Z,995.21
2019-03-04T00:20:23.120Z,995.15
2019-03-04T00:21:23.104Z,995.09
2019-03-04T00:22:23.098Z,995.09
2019-03-04T00:23:23.086Z,995.10
2019-03-04T00:24:23.085Z,995.14
2019-03-04T00:25:23.063Z,995.02
2019-03-04T00:26:23.056Z,995.03
2019-03-04T00:27:23.041Z,995.01
2019-03-04T00:28:23.050Z,995.01
2019-03-04T00:29:30.070Z,994.96
2019-03-04T00:30:23.013Z,994.98
2019-03-04T00:31:23.000Z,994.92
2019-03-04T00:32:22.985Z,994.96
2019-03-04T00:33:23.011Z,994.99
2019-03-04T00:34:22.978Z,995.06
2019-03-04T00:35:22.952Z,995.02
2019-03-04T00:36:22.944Z,994.98
2019-03-04T00:37:22.930Z,995.06
2019-03-04T00:38:22.921Z,994.94
2019-03-04T00:39:22.942Z,994.99
2019-03-04T00:40:22.906Z,994.92
2019-03-04T00:41:22.890Z,994.96
2019-03-04T00:42:22.884Z,994.98
2019-03-04T00:43:22.865Z,994.99
2019-03-04T00:44:22.858Z,994.98
2019-03-04T00:45:22.884Z,995.02
2019-03-04T00:46:22.830Z,994.92
2019-03-04T00:47:22.824Z,994.85
2019-03-04T00:48:22.809Z,994.83
2019-03-04T00:49:22.805Z,994.85
2019-03-04T00:50:22.790Z,994.77
2019-03-04T00:51:22.820Z,994.86
2019-03-04T00:52:22.771Z,994.76
2019-03-04T00:53:22.762Z,994.78
2019-03-04T00:54:22.749Z,994.71
2019-03-04T00:55:22.732Z,994.71
2019-03-04T00:56:22.727Z,994.63
2019-03-04T00:57:22.719Z,994.65
2019-03-04T00:58:22.700Z,994.60
2019-03-04T00:59:22.689Z,994.73
2019-03-04T01:00:22.681Z,994.56
2019-03-04T01:01:22.683Z,994.61
2019-03-04T01:02:22.662Z,994.55
2019-03-04T01:03:22.660Z,994.52
2019-03-04T01:04:22.639Z,994.44
2019-03-04T01:05:22.627Z,994.41
2019-03-04T01:06:22.618Z,994.35
2019-03-04T01:07:22.611Z,994.40
2019-03-04T01:08:22.593Z,994.33
2019-03-04T01:09:22.586Z,994.35
2019-03-04T01:10:22.574Z,994.42
2019-03-04T01:11:22.710Z,994.29
2019-03-04T01:12:22.555Z,994.23
2019-03-04T01:13:22.539Z,994.27
2019-03-04T01:14:22.528Z,994.26
2019-03-04T01:15:22.662Z,994.26
2019-03-04T01:16:22.509Z,994.18
2019-03-04T01:17:22.507Z,994.25
2019-03-04T01:18:22.485Z,994.22
2019-03-04T01:19:22.502Z,994.29
2019-03-04T01:20:22.469Z,994.26
2019-03-04T01:21:22.456Z,994.20
2019-03-04T01:22:22.439Z,994.17
2019-03-04T01:23:22.431Z,994.08
2019-03-04T01:24:22.419Z,994.01
2019-03-04T01:25:22.427Z,994.01
2019-03-04T01:26:22.403Z,994.00
2019-03-04T01:27:22.403Z,993.99
2019-03-04T01:28:22.380Z,994.02
2019-03-04T01:29:22.365Z,993.86
2019-03-04T01:30:22.460Z,993.87
2019-03-04T01:31:22.349Z,993.78
2019-03-04T01:32:22.337Z,993.70
2019-03-04T01:33:22.326Z,993.65
2019-03-04T01:34:22.310Z,993.66
2019-03-04T01:35:22.298Z,993.65
2019-03-04T01:36:22.310Z,993.60
2019-03-04T01:37:22.302Z,993.48
2019-03-04T01:38:22.275Z,993.46
2019-03-04T01:39:22.263Z,993.44
2019-03-04T01:40:22.250Z,993.38
2019-03-04T01:41:22.289Z,993.39
2019-03-04T01:42:22.239Z,993.36
2019-03-04T01:43:22.216Z,993.37
2019-03-04T01:44:22.210Z,993.31
2019-03-04T01:45:22.192Z,993.28
2019-03-04T01:46:22.180Z,993.28
2019-03-04T01:47:22.192Z,993.34
2019-03-04T01:48:22.176Z,993.36
2019-03-04T01:49:22.146Z,993.38
2019-03-04T01:50:22.143Z,993.40
2019-03-04T01:51:22.159Z,993.42
2019-03-04T01:52:22.121Z,993.38
2019-03-04T01:53:22.129Z,993.45
2019-03-04T01:54:22.098Z,993.47
2019-03-04T01:55:22.081Z,993.45
2019-03-04T01:56:22.122Z,993.53
2019-03-04T01:57:22.067Z,993.51
2019-03-04T01:58:22.052Z,993.56
2019-03-04T01:59:22.038Z,993.62
2019-03-04T02:00:22.033Z,993.59
2019-03-04T02:01:22.016Z,993.59
2019-03-04T02:02:22.019Z,993.61
2019-03-04T02:03:21.998Z,993.50
2019-03-04T02:04:21.990Z,993.62
2019-03-04T02:05:22.010Z,993.56
2019-03-04T02:06:21.970Z,993.56
2019-03-04T02:07:21.956Z,993.60
2019-03-04T02:08:21.944Z,993.57
2019-03-04T02:09:21.979Z,993.53
2019-03-04T02:10:21.917Z,993.48
2019-03-04T02:11:21.910Z,993.45
2019-03-04T02:12:21.901Z,993.45
2019-03-04T02:13:21.954Z,993.43
2019-03-04T02:14:21.891Z,993.47
2019-03-04T02:15:21.869Z,993.43
2019-03-04T02:16:21.855Z,993.45
2019-03-04T02:17:21.859Z,993.50
2019-03-04T02:18:21.838Z,993.52
2019-03-04T02:19:21.828Z,993.58
2019-03-04T02:20:21.813Z,993.56
2019-03-04T02:21:21.800Z,993.58
2019-03-04T02:22:21.788Z,993.53
2019-03-04T02:23:21.778Z,993.61
2019-03-04T02:24:21.819Z,993.66
2019-03-04T02:25:21.761Z,993.74
2019-03-04T02:26:21.747Z,993.77
2019-03-04T02:27:21.748Z,993.80
2019-03-04T02:28:21.729Z,993.83
2019-03-04T02:29:21.718Z,993.84
2019-03-04T02:30:21.713Z,993.83
2019-03-04T02:31:21.698Z,993.85
2019-03-04T02:32:21.686Z,993.81
2019-03-04T02:33:21.688Z,993.77
2019-03-04T02:34:21.707Z,993.77
2019-03-04T02:35:21.701Z,993.67
2019-03-04T02:36:21.644Z,993.68
2019-03-04T02:37:21.639Z,993.67
2019-03-04T02:38:21.623Z,993.66
2019-03-04T02:39:21.625Z,993.69
2019-03-04T02:40:21.597Z,993.66
2019-03-04T02:41:21.592Z,993.63
2019-03-04T02:42:21.578Z,993.67
2019-03-04T02:43:21.614Z,993.64
2019-03-04T02:44:21.618Z,993.58
2019-03-04T02:45:21.541Z,993.50
2019-03-04T02:46:21.536Z,993.46
2019-03-04T02:47:21.520Z,993.45
2019-03-04T02:48:21.516Z,993.49
2019-03-04T02:49:21.501Z,993.35
2019-03-04T02:50:21.525Z,993.37
2019-03-04T02:51:21.516Z,993.36
2019-03-04T02:52:21.470Z,993.39
2019-03-04T02:53:21.457Z,993.39
2019-03-04T02:54:21.444Z,993.37
2019-03-04T02:55:21.469Z,993.35
2019-03-04T02:56:21.420Z,993.24
2019-03-04T02:57:21.418Z,993.16
2019-03-04T02:58:21.404Z,993.17
2019-03-04T02:59:21.413Z,993.18
2019-03-04T03:00:21.428Z,993.03
2019-03-04T03:01:21.372Z,993.04
2019-03-04T03:02:21.359Z,993.02
2019-03-04T03:03:21.350Z,992.96
2019-03-04T03:04:21.338Z,992.92
2019-03-04T03:05:21.360Z,992.89
2019-03-04T03:06:21.319Z,992.86
2019-03-04T03:07:21.352Z,992.87
2019-03-04T03:08:21.296Z,992.83
2019-03-04T03:09:21.288Z,992.82
2019-03-04T03:10:21.268Z,992.75
2019-03-04T03:11:21.294Z,992.66
2019-03-04T03:12:21.283Z,992.65
2019-03-04T03:13:21.241Z,992.64
2019-03-04T03:14:21.229Z,992.59
2019-03-04T03:15:21.254Z,992.54
2019-03-04T03:16:21.209Z,992.53
2019-03-04T03:17:21.201Z,992.53
2019-03-04T03:18:21.218Z,992.53
2019-03-04T03:19:21.178Z,992.60
2019-03-04T03:20:21.166Z,992.57
2019-03-04T03:21:21.155Z,992.54
2019-03-04T03:22:21.209Z,992.54
2019-03-04T03:23:21.134Z,992.38
2019-03-04T03:24:21.131Z,992.45
2019-03-04T03:25:21.106Z,992.37
2019-03-04T03:26:21.106Z,992.39
2019-03-04T03:27:21.088Z,992.32
2019-03-04T03:28:21.109Z,992.37
2019-03-04T03:29:21.068Z,992.32
2019-03-04T03:30:21.725Z,992.26
2019-03-04T03:31:21.195Z,992.22
2019-03-04T03:32:21.037Z,992.22
2019-03-04T03:33:21.053Z,992.21
2019-03-04T03:34:21.033Z,992.18
2019-03-04T03:35:21.066Z,992.14
2019-03-04T03:36:20.994Z,992.11
2019-03-04T03:37:20.977Z,992.12
2019-03-04T03:38:20.971Z,992.10
2019-03-04T03:39:20.973Z,992.02
2019-03-04T03:40:21.067Z,992.02
2019-03-04T03:41:20.974Z,992.07
2019-03-04T03:42:20.929Z,992.14
2019-03-04T03:43:20.917Z,992.05
2019-03-04T03:44:20.908Z,992.01
2019-03-04T03:45:20.927Z,992.00
2019-03-04T03:46:20.892Z,991.96
2019-03-04T03:47:20.872Z,991.91
2019-03-04T03:48:20.865Z,991.79
2019-03-04T03:49:20.851Z,991.81
2019-03-04T03:50:20.848Z,991.90
2019-03-04T03:51:20.860Z,991.89
2019-03-04T03:52:20.815Z,991.94
2019-03-04T03:53:20.808Z,991.95
2019-03-04T03:54:20.797Z,991.98
2019-03-04T03:55:20.793Z,991.97
2019-03-04T03:56:20.843Z,992.07
2019-03-04T03:57:20.763Z,992.05
2019-03-04T03:58:20.751Z,992.13
2019-03-04T03:59:20.752Z,992.18
2019-03-04T04:00:20.739Z,992.14
2019-03-04T04:01:20.787Z,992.05
2019-03-04T04:02:20.713Z,991.99
2019-03-04T04:03:20.699Z,991.99
2019-03-04T04:04:20.713Z,991.99
2019-03-04T04:05:20.693Z,991.95
2019-03-04T04:06:20.667Z,991.95
2019-03-04T04:07:20.706Z,992.02
2019-03-04T04:08:20.647Z,992.02
2019-03-04T04:09:20.652Z,991.99
2019-03-04T04:10:20.623Z,991.93
2019-03-04T04:11:20.618Z,991.92
2019-03-04T04:12:20.695Z,991.86
2019-03-04T04:13:20.614Z,991.73
2019-03-04T04:14:20.582Z,991.75
2019-03-04T04:15:20.633Z,991.72
2019-03-04T04:16:20.560Z,991.69
2019-03-04T04:17:20.543Z,991.66
2019-03-04T04:18:20.571Z,991.61
2019-03-04T04:19:20.531Z,991.57
2019-03-04T04:20:20.520Z,991.54
2019-03-04T04:21:20.504Z,991.51
2019-03-04T04:22:20.496Z,991.45
2019-03-04T04:23:20.484Z,991.43
2019-03-04T04:24:20.525Z,991.43
2019-03-04T04:25:20.463Z,991.43
2019-03-04T04:26:20.452Z,991.45
2019-03-04T04:27:20.440Z,991.40
2019-03-04T04:28:20.464Z,991.34
2019-03-04T04:29:20.414Z,991.27
2019-03-04T04:30:20.408Z,991.16
2019-03-04T04:31:20.398Z,991.22
2019-03-04T04:32:20.381Z,991.16
2019-03-04T04:33:20.383Z,991.17
2019-03-04T04:34:20.436Z,991.17
2019-03-04T04:35:20.355Z,991.10
2019-03-04T04:36:20.347Z,991.12
2019-03-04T04:37:20.328Z,991.10
2019-03-04T04:38:20.328Z,991.12
2019-03-04T04:39:20.372Z,991.14
2019-03-04T04:40:20.302Z,991.11
2019-03-04T04:41:20.288Z,991.10
2019-03-04T04:42:20.271Z,991.08
2019-03-04T04:43:20.261Z,991.07
2019-03-04T04:44:20.260Z,991.08
2019-03-04T04:45:20.310Z,991.02
2019-03-04T04:46:20.228Z,991.04
2019-03-04T04:47:20.223Z,990.99
2019-03-04T04:48:20.222Z,991.00
2019-03-04T04:49:20.199Z,991.00
2019-03-04T04:50:20.186Z,991.00
2019-03-04T04:51:20.230Z,990.94
2019-03-04T04:52:20.162Z,990.95
2019-03-04T04:53:20.157Z,990.92
2019-03-04T04:54:20.141Z,990.88
2019-03-04T04:55:20.137Z,990.85
2019-03-04T04:56:20.173Z,990.90
2019-03-04T04:57:20.114Z,990.90
2019-03-04T04:58:20.126Z,990.92
2019-03-04T04:59:20.089Z,990.90
2019-03-04T05:00:20.086Z,990.91
2019-03-04T05:01:20.146Z,990.87
2019-03-04T05:02:20.153Z,990.90
2019-03-04T05:03:20.047Z,990.79
2019-03-04T05:04:20.036Z,990.79
2019-03-04T05:05:20.028Z,990.84
2019-03-04T05:06:20.017Z,990.84
2019-03-04T05:07:20.052Z,990.84
2019-03-04T05:08:19.993Z,990.81
2019-03-04T05:09:19.987Z,990.82
2019-03-04T05:10:19.978Z,990.86
2019-03-04T05:11:19.962Z,990.85
2019-03-04T05:12:19.982Z,990.88
2019-03-04T05:13:19.940Z,990.85
2019-03-04T05:14:19.931Z,990.90
2019-03-04T05:15:19.918Z,990.88
2019-03-04T05:16:19.906Z,990.84
2019-03-04T05:17:19.891Z,990.82
2019-03-04T05:18:19.914Z,990.74
2019-03-04T05:19:19.868Z,990.75
2019-03-04T05:20:19.862Z,990.74
2019-03-04T05:21:19.852Z,990.75
2019-03-04T05:22:19.849Z,990.69
2019-03-04T05:23:19.834Z,990.65
2019-03-04T05:24:19.828Z,990.59
2019-03-04T05:25:19.809Z,990.56
2019-03-04T05:26:19.800Z,990.51
2019-03-04T05:27:19.784Z,990.53
2019-03-04T05:28:19.779Z,990.48
2019-03-04T05:29:19.825Z,990.42
2019-03-04T05:30:19.756Z,990.39
2019-03-04T05:31:19.740Z,990.39
2019-03-04T05:32:19.734Z,990.43
2019-03-04T05:33:19.718Z,990.46
2019-03-04T05:34:19.755Z,990.55
2019-03-04T05:35:19.746Z,990.48
2019-03-04T05:36:19.687Z,990.47
2019-03-04T05:37:19.680Z,990.45
2019-03-04T05:38:19.662Z,990.42
2019-03-04T05:39:19.657Z,990.43
2019-03-04T05:40:19.689Z,990.43
2019-03-04T05:41:19.674Z,990.44
2019-03-04T05:42:19.621Z,990.44
2019-03-04T05:43:19.609Z,990.42
2019-03-04T05:44:19.602Z,990.38
2019-03-04T05:45:19.589Z,990.33
2019-03-04T05:46:19.576Z,990.30
2019-03-04T05:47:19.658Z,990.27
2019-03-04T05:48:19.555Z,990.28
2019-03-04T05:49:19.543Z,990.26
2019-03-04T05:50:19.535Z,990.22
2019-03-04T05:51:19.521Z,990.24
2019-03-04T05:52:19.507Z,990.20
2019-03-04T05:53:19.551Z,990.26
2019-03-04T05:54:19.525Z,990.22
2019-03-04T05:55:19.477Z,990.22
2019-03-04T05:56:19.465Z,990.18
2019-03-04T05:57:19.454Z,990.18
2019-03-04T05:58:19.463Z,990.19
2019-03-04T05:59:20.219Z,990.17
2019-03-04T06:00:19.487Z,990.15
2019-03-04T06:01:19.415Z,990.12
2019-03-04T06:02:19.420Z,990.04
2019-03-04T06:03:19.389Z,990.06
2019-03-04T06:04:19.382Z,990.02
2019-03-04T06:05:19.367Z,990.03
2019-03-04T06:06:19.391Z,990.05
2019-03-04T06:07:19.343Z,990.06
2019-03-04T06:08:19.340Z,990.03
2019-03-04T06:09:19.324Z,990.03
2019-03-04T06:10:19.316Z,990.03
2019-03-04T06:11:19.340Z,990.00
2019-03-04T06:12:19.294Z,989.98
2019-03-04T06:13:19.284Z,990.01
2019-03-04T06:14:19.271Z,989.98
2019-03-04T06:15:19.272Z,989.97
2019-03-04T06:16:19.283Z,989.88
2019-03-04T06:17:19.239Z,989.83
2019-03-04T06:18:19.224Z,989.75
2019-03-04T06:19:19.212Z,989.78
2019-03-04T06:20:19.206Z,989.64
2019-03-04T06:21:19.253Z,989.59
2019-03-04T06:22:19.186Z,989.60
2019-03-04T06:23:19.167Z,989.48
2019-03-04T06:24:19.157Z,989.52
2019-03-04T06:25:19.147Z,989.50
2019-03-04T06:26:19.199Z,989.54
2019-03-04T06:27:19.126Z,989.50
2019-03-04T06:28:19.121Z,989.54
2019-03-04T06:29:26.258Z,989.54
2019-03-04T06:30:19.101Z,989.61
2019-03-04T06:31:19.086Z,989.71
2019-03-04T06:32:19.132Z,989.65
2019-03-04T06:33:19.065Z,989.47
2019-03-04T06:34:19.050Z,989.56
2019-03-04T06:35:19.041Z,989.59
2019-03-04T06:36:19.032Z,989.50
2019-03-04T06:37:19.021Z,989.44
2019-03-04T06:38:19.041Z,989.47
2019-03-04T06:39:18.996Z,989.39
2019-03-04T06:40:18.987Z,989.40
2019-03-04T06:41:18.979Z,989.32
2019-03-04T06:42:18.966Z,989.39
2019-03-04T06:43:19.019Z,989.44
2019-03-04T06:44:18.946Z,989.32
2019-03-04T06:45:18.940Z,989.36
2019-03-04T06:46:18.920Z,989.30
2019-03-04T06:47:18.912Z,989.43
2019-03-04T06:48:18.897Z,989.41
2019-03-04T06:49:18.949Z,989.36
2019-03-04T06:50:18.880Z,989.38
2019-03-04T06:51:18.908Z,989.29
2019-03-04T06:52:18.871Z,989.30
2019-03-04T06:53:18.881Z,989.27
2019-03-04T06:54:18.830Z,989.27
2019-03-04T06:55:18.826Z,989.24
2019-03-04T06:56:18.837Z,989.22
2019-03-04T06:57:27.909Z,989.21
2019-03-04T06:58:19.822Z,989.16
2019-03-04T06:59:18.780Z,989.12
2019-03-04T07:00:18.772Z,989.08
2019-03-04T07:01:18.770Z,988.97
2019-03-04T07:02:18.753Z,988.97
2019-03-04T07:03:18.738Z,988.98
2019-03-04T07:04:18.758Z,988.90
2019-03-04T07:05:18.710Z,988.95
2019-03-04T07:06:18.703Z,988.88
2019-03-04T07:07:18.691Z,988.80
2019-03-04T07:08:18.679Z,988.81
2019-03-04T07:09:18.760Z,988.81
2019-03-04T07:10:18.656Z,988.82
2019-03-04T07:11:18.652Z,988.77
2019-03-04T07:12:18.641Z,988.77
2019-03-04T07:13:18.631Z,988.72
2019-03-04T07:14:18.622Z,988.73
2019-03-04T07:15:18.644Z,988.70
2019-03-04T07:16:18.590Z,988.67
2019-03-04T07:17:18.586Z,988.61
2019-03-04T07:18:18.571Z,988.61
2019-03-04T07:19:18.562Z,988.63
2019-03-04T07:20:18.547Z,988.71
2019-03-04T07:21:18.555Z,988.69
2019-03-04T07:22:18.545Z,988.72
2019-03-04T07:23:18.520Z,988.72
2019-03-04T07:24:19.238Z,988.70
2019-03-04T07:25:18.529Z,988.72
2019-03-04T07:26:18.490Z,988.62
2019-03-04T07:27:18.487Z,988.63
2019-03-04T07:28:18.464Z,988.58
2019-03-04T07:29:18.453Z,988.45
2019-03-04T07:30:18.440Z,988.43
2019-03-04T07:31:18.461Z,988.42
2019-03-04T07:32:18.414Z,988.36
2019-03-04T07:33:19.278Z,988.36
2019-03-04T07:34:18.397Z,988.30
2019-03-04T07:35:18.397Z,988.29
2019-03-04T07:36:18.375Z,988.24
2019-03-04T07:37:18.411Z,988.20
2019-03-04T07:38:18.353Z,988.21
2019-03-04T07:39:18.341Z,988.14
2019-03-04T07:40:18.331Z,988.01
2019-03-04T07:41:18.338Z,987.97
2019-03-04T07:42:18.336Z,987.96
2019-03-04T07:43:18.302Z,987.99
2019-03-04T07:44:18.284Z,987.98
2019-03-04T07:45:18.276Z,987.92
2019-03-04T07:46:18.261Z,987.90
2019-03-04T07:47:18.248Z,987.87
2019-03-04T07:48:18.260Z,987.81
2019-03-04T07:49:18.231Z,987.79
2019-03-04T07:50:18.220Z,987.82
2019-03-04T07:51:18.204Z,987.82
2019-03-04T07:52:18.222Z,987.73
2019-03-04T07:53:19.137Z,987.68
2019-03-04T07:54:18.179Z,987.62
2019-03-04T07:55:18.162Z,987.56
2019-03-04T07:56:18.154Z,987.66
2019-03-04T07:57:18.146Z,987.51
2019-03-04T07:58:18.148Z,987.52
2019-03-04T07:59:18.126Z,987.47
2019-03-04T08:00:18.107Z,987.59
2019-03-04T08:01:18.150Z,987.61
2019-03-04T08:02:18.120Z,987.60
2019-03-04T08:03:18.073Z,987.57
2019-03-04T08:04:18.113Z,987.54
2019-03-04T08:05:18.057Z,987.53
2019-03-04T08:06:18.039Z,987.49
2019-03-04T08:07:18.035Z,987.53
2019-03-04T08:08:18.016Z,987.51
2019-03-04T08:09:18.057Z,987.54
2019-03-04T08:10:17.999Z,987.60
2019-03-04T08:11:17.989Z,987.45
2019-03-04T08:12:17.979Z,987.46
2019-03-04T08:13:17.967Z,987.42
2019-03-04T08:14:18.004Z,987.40
2019-03-04T08:15:17.992Z,987.41
2019-03-04T08:16:17.936Z,987.30
2019-03-04T08:17:17.923Z,987.25
2019-03-04T08:18:17.907Z,987.13
2019-03-04T08:19:17.956Z,987.15
2019-03-04T08:20:17.888Z,987.02
2019-03-04T08:21:17.879Z,986.99
2019-03-04T08:22:17.932Z,986.93
2019-03-04T08:23:17.857Z,986.76
2019-03-04T08:24:17.854Z,986.71
2019-03-04T08:25:17.832Z,986.65
2019-03-04T08:26:17.823Z,986.55
2019-03-04T08:27:17.808Z,986.60
2019-03-04T08:28:17.834Z,986.57
2019-03-04T08:29:17.786Z,986.60
2019-03-04T08:30:17.813Z,986.71
2019-03-04T08:31:17.784Z,986.51
2019-03-04T08:32:17.764Z,986.30
2019-03-04T08:33:17.742Z,986.34
2019-03-04T08:34:17.743Z,986.43
2019-03-04T08:35:17.723Z,986.68
2019-03-04T08:36:17.764Z,986.84
2019-03-04T08:37:17.705Z,986.89
2019-03-04T08:38:17.702Z,986.73
2019-03-04T08:39:17.686Z,986.63
2019-03-04T08:40:17.667Z,986.49
2019-03-04T08:41:17.710Z,986.23
2019-03-04T08:42:17.690Z,986.21
2019-03-04T08:43:17.670Z,986.18
2019-03-04T08:44:17.623Z,986.14
2019-03-04T08:45:17.640Z,986.08
2019-03-04T08:46:17.605Z,986.17
2019-03-04T08:47:17.643Z,986.10
2019-03-04T08:48:17.583Z,985.96
2019-03-04T08:49:17.568Z,985.81
2019-03-04T08:50:17.559Z,985.67
2019-03-04T08:51:17.544Z,985.76
2019-03-04T08:52:17.603Z,985.85
2019-03-04T08:53:17.525Z,985.96
2019-03-04T08:54:17.517Z,986.08
2019-03-04T08:55:17.501Z,986.15
2019-03-04T08:56:17.514Z,986.29
2019-03-04T08:57:17.484Z,986.24
2019-03-04T08:58:17.522Z,986.28
2019-03-04T08:59:17.527Z,986.19
2019-03-04T09:00:17.447Z,986.07
2019-03-04T09:01:17.435Z,985.99
2019-03-04T09:02:17.426Z,985.95
2019-03-04T09:03:17.463Z,985.95
2019-03-04T09:04:17.408Z,985.85
2019-03-04T09:05:17.391Z,985.82
2019-03-04T09:06:17.383Z,985.83
2019-03-04T09:07:17.426Z,985.80
2019-03-04T09:08:17.403Z,985.82
2019-03-04T09:09:17.354Z,985.73
2019-03-04T09:10:17.343Z,985.77
2019-03-04T09:11:17.325Z,985.83
2019-03-04T09:12:17.316Z,985.79
2019-03-04T09:13:17.358Z,985.66
2019-03-04T09:14:17.365Z,985.65
2019-03-04T09:15:17.283Z,985.63
2019-03-04T09:16:17.278Z,985.69
2019-03-04T09:17:17.267Z,985.67
2019-03-04T09:18:17.256Z,985.58
2019-03-04T09:19:17.260Z,985.57
2019-03-04T09:20:17.234Z,985.49
2019-03-04T09:21:17.240Z,985.44
2019-03-04T09:22:17.210Z,985.37
2019-03-04T09:23:17.210Z,985.32
2019-03-04T09:24:17.190Z,985.29
2019-03-04T09:25:17.244Z,985.38
2019-03-04T09:26:17.169Z,985.50
2019-03-04T09:27:17.157Z,985.53
2019-03-04T09:28:17.144Z,985.48
2019-03-04T09:29:17.132Z,985.49
2019-03-04T09:30:17.183Z,985.56
2019-03-04T09:31:17.109Z,985.49
2019-03-04T09:32:17.100Z,985.55
2019-03-04T09:33:17.083Z,985.48
2019-03-04T09:34:17.083Z,985.46
2019-03-04T09:35:17.087Z,985.41
2019-03-04T09:36:17.147Z,985.42
2019-03-04T09:37:17.042Z,985.34
2019-03-04T09:38:17.037Z,985.36
2019-03-04T09:39:17.017Z,985.24
2019-03-04T09:40:17.011Z,985.28
2019-03-04T09:41:17.065Z,985.40
2019-03-04T09:42:16.985Z,985.41
2019-03-04T09:43:17.047Z,985.43
2019-03-04T09:44:16.971Z,985.48
2019-03-04T09:45:16.956Z,985.46
2019-03-04T09:46:16.977Z,985.47
2019-03-04T09:47:16.977Z,985.43
2019-03-04T09:48:16.924Z,985.39
2019-03-04T09:49:16.913Z,985.44
2019-03-04T09:50:16.905Z,985.43
2019-03-04T09:51:24.066Z,985.45
2019-03-04T09:52:17.884Z,985.37
2019-03-04T09:53:16.871Z,985.26
2019-03-04T09:54:16.859Z,985.32
2019-03-04T09:55:16.847Z,985.38
2019-03-04T09:56:16.867Z,985.36
2019-03-04T09:57:16.845Z,985.31
2019-03-04T09:58:16.814Z,985.28
2019-03-04T09:59:16.797Z,985.28
2019-03-04T10:00:16.786Z,985.20
2019-03-04T10:01:16.849Z,985.25
2019-03-04T10:02:16.858Z,985.18
2019-03-04T10:03:16.759Z,985.13
2019-03-04T10:04:16.743Z,985.12
2019-03-04T10:05:16.732Z,985.11
2019-03-04T10:06:16.726Z,985.10
2019-03-04T10:07:16.721Z,985.05
2019-03-04T10:08:16.827Z,984.98
2019-03-04T10:09:16.686Z,984.93
2019-03-04T10:10:16.679Z,984.92
2019-03-04T10:11:16.671Z,984.87
2019-03-04T10:12:16.685Z,984.81
2019-03-04T10:13:16.648Z,984.73
2019-03-04T10:14:16.702Z,984.74
2019-03-04T10:15:16.692Z,984.65
2019-03-04T10:16:18.987Z,984.62
2019-03-04T10:17:16.647Z,984.56
2019-03-04T10:18:16.597Z,984.51
2019-03-04T10:19:17.312Z,984.47
2019-03-04T10:20:16.570Z,984.39
2019-03-04T10:21:16.561Z,984.38
2019-03-04T10:22:16.550Z,984.30
2019-03-04T10:23:16.582Z,984.31
2019-03-04T10:24:16.528Z,984.28
2019-03-04T10:25:16.588Z,984.33
2019-03-04T10:26:22.572Z,984.28
2019-03-04T10:27:17.491Z,984.26
2019-03-04T10:28:16.528Z,984.29
2019-03-04T10:29:16.536Z,984.19
2019-03-04T10:30:16.480Z,984.22
2019-03-04T10:31:16.463Z,984.29
2019-03-04T10:32:16.443Z,984.22
2019-03-04T10:33:16.426Z,984.30
2019-03-04T10:34:16.467Z,984.28
2019-03-04T10:35:16.409Z,984.31
2019-03-04T10:36:16.397Z,984.20
2019-03-04T10:37:16.385Z,984.18
2019-03-04T10:38:22.623Z,984.14
2019-03-04T10:39:22.110Z,984.26
2019-03-04T10:40:16.356Z,984.17
2019-03-04T10:41:16.342Z,984.15
2019-03-04T10:42:16.333Z,984.04
2019-03-04T10:43:16.324Z,984.08
2019-03-04T10:44:16.358Z,984.09
2019-03-04T10:45:18.212Z,984.21
2019-03-04T10:46:16.291Z,984.04
2019-03-04T10:47:16.277Z,984.19
2019-03-04T10:48:16.327Z,983.92
2019-03-04T10:49:16.255Z,984.02
2019-03-04T10:50:16.254Z,984.01
2019-03-04T10:51:16.233Z,984.03
2019-03-04T10:52:16.219Z,984.22
2019-03-04T10:53:16.212Z,984.14
2019-03-04T10:54:16.253Z,984.01
2019-03-04T10:55:16.186Z,984.03
2019-03-04T10:56:16.183Z,984.03
2019-03-04T10:57:16.165Z,983.97
2019-03-04T10:58:16.157Z,984.01
2019-03-04T10:59:16.215Z,984.06
2019-03-04T11:00:16.146Z,984.05
2019-03-04T11:01:16.121Z,983.95
2019-03-04T11:02:16.123Z,984.13
2019-03-04T11:03:16.106Z,984.06
2019-03-04T11:04:16.093Z,983.89
2019-03-04T11:05:16.121Z,984.10
2019-03-04T11:06:16.119Z,984.22
2019-03-04T11:07:16.066Z,984.24
2019-03-04T11:08:16.044Z,984.20
2019-03-04T11:09:16.038Z,984.29
2019-03-04T11:10:16.092Z,984.32
2019-03-04T11:11:16.017Z,984.20
2019-03-04T11:12:16.000Z,984.40
2019-03-04T11:13:16.058Z,984.36
2019-03-04T11:14:15.981Z,984.26
2019-03-04T11:15:15.976Z,984.32
2019-03-04T11:16:15.959Z,984.10
2019-03-04T11:17:15.972Z,984.15
2019-03-04T11:18:15.937Z,984.39
2019-03-04T11:19:15.990Z,984.45
2019-03-04T11:20:15.918Z,984.44
2019-03-04T11:21:15.905Z,984.55
2019-03-04T11:22:15.921Z,984.87
2019-03-04T11:23:15.880Z,985.27
2019-03-04T11:24:15.873Z,985.64
2019-03-04T11:25:15.863Z,985.56
2019-03-04T11:26:15.851Z,985.88
2019-03-04T11:27:15.834Z,985.77
2019-03-04T11:28:15.895Z,985.87
2019-03-04T11:29:15.826Z,985.89
2019-03-04T11:30:15.820Z,985.86
2019-03-04T11:31:15.796Z,985.97
2019-03-04T11:32:15.873Z,986.05
2019-03-04T11:33:15.767Z,986.13
2019-03-04T11:34:15.763Z,986.09
2019-03-04T11:35:15.757Z,986.16
2019-03-04T11:36:15.759Z,985.87
2019-03-04T11:37:15.728Z,986.07
2019-03-04T11:38:15.765Z,986.18
2019-03-04T11:39:15.706Z,986.12
2019-03-04T11:40:15.697Z,986.18
2019-03-04T11:41:15.733Z,986.21
2019-03-04T11:42:15.676Z,986.20
2019-03-04T11:43:15.663Z,986.31
2019-03-04T11:44:15.715Z,986.25
2019-03-04T11:45:15.656Z,986.19
2019-03-04T11:46:15.630Z,986.34
2019-03-04T11:47:15.620Z,986.28
2019-03-04T11:48:15.658Z,986.30
2019-03-04T11:49:15.598Z,986.20
2019-03-04T11:50:15.582Z,986.16
2019-03-04T11:51:15.638Z,986.19
2019-03-04T11:52:15.564Z,985.94
2019-03-04T11:53:15.557Z,985.95
2019-03-04T11:54:15.573Z,985.89
2019-03-04T11:55:15.535Z,985.88
2019-03-04T11:56:15.517Z,985.91
2019-03-04T11:57:15.510Z,985.83
2019-03-04T11:58:15.570Z,985.95
2019-03-04T11:59:15.500Z,985.80
2019-03-04T12:00:15.541Z,985.75
2019-03-04T12:01:15.461Z,985.77
2019-03-04T12:02:15.463Z,985.87
2019-03-04T12:03:15.447Z,985.73
2019-03-04T12:04:15.433Z,985.53
2019-03-04T12:05:15.488Z,985.49
2019-03-04T12:06:15.473Z,985.53
2019-03-04T12:07:15.397Z,985.61
2019-03-04T12:08:15.389Z,985.44
2019-03-04T12:09:15.378Z,985.43
2019-03-04T12:10:15.370Z,985.47
2019-03-04T12:11:15.426Z,985.54
2019-03-04T12:12:15.347Z,985.45
2019-03-04T12:13:15.337Z,985.39
2019-03-04T12:14:15.321Z,985.36
2019-03-04T12:15:15.308Z,985.42
2019-03-04T12:16:15.299Z,985.38
2019-03-04T12:17:15.356Z,985.45
2019-03-04T12:18:15.276Z,985.45
2019-03-04T12:19:15.476Z,985.43
2019-03-04T12:20:15.258Z,985.38
2019-03-04T12:21:15.243Z,985.33
2019-03-04T12:22:15.304Z,985.27
2019-03-04T12:23:15.247Z,985.18
2019-03-04T12:24:15.231Z,985.19
2019-03-04T12:25:15.210Z,985.15
2019-03-04T12:26:15.222Z,985.23
2019-03-04T12:27:15.230Z,985.32
2019-03-04T12:28:15.173Z,985.25